createdAt,value
2018-01-24T00:00:58.995Z,77.76
2018-01-24T00:01:59.728Z,77.56
2018-01-24T00:02:59.007Z,77.98
2018-01-24T00:03:59.263Z,78.25
2018-01-24T00:04:59.698Z,77.86
2018-01-24T00:05:59.092Z,77.37
2018-01-24T00:06:58.932Z,77.76
2018-01-24T00:07:59.059Z,77.94
2018-01-24T00:08:59.690Z,77.97
2018-01-24T00:09:59.774Z,77.76
2018-01-24T00:10:59.657Z,77.69
2018-01-24T00:11:59.043Z,77.62
2018-01-24T00:12:59.747Z,77.57
2018-01-24T00:13:58.995Z,77.76
2018-01-24T00:14:59.008Z,77.2
2018-01-24T00:15:59.801Z,77.05
2018-01-24T00:16:59.016Z,77.79
2018-01-24T00:17:59.713Z,77.75
2018-01-24T00:18:59.089Z,77
2018-01-24T00:20:01.097Z,78.03
2018-01-24T00:20:59.086Z,78.05
2018-01-24T00:21:59.060Z,77.57
2018-01-24T00:22:59.662Z,77.85
2018-01-24T00:23:59.308Z,77.88
2018-01-24T00:24:59.028Z,77.82
2018-01-24T00:25:59.651Z,77.73
2018-01-24T00:26:59.571Z,77.83
2018-01-24T00:27:58.999Z,78.13
2018-01-24T00:28:59.042Z,77.98
2018-01-24T00:30:00.384Z,77.97
2018-01-24T00:31:00.285Z,77.55
2018-01-24T00:31:58.940Z,77.26
2018-01-24T00:32:59.110Z,77.17
2018-01-24T00:33:59.285Z,77.54
2018-01-24T00:34:58.997Z,77.45
2018-01-24T00:35:59.749Z,77.62
2018-01-24T00:37:01.221Z,77.63
2018-01-24T00:37:58.985Z,77.36
2018-01-24T00:38:59.499Z,77.35
2018-01-24T00:39:59.092Z,77.15
2018-01-24T00:40:59.752Z,76.89
2018-01-24T00:41:59.081Z,77.23
2018-01-24T00:42:59.658Z,77.23
2018-01-24T00:43:59.030Z,77.28
2018-01-24T00:44:59.031Z,77.17
2018-01-24T00:45:59.597Z,76.99
2018-01-24T00:47:00.007Z,77.24
2018-01-24T00:47:59.052Z,77.16
2018-01-24T00:48:59.163Z,76.78
2018-01-24T00:49:59.091Z,77.37
2018-01-24T00:50:59.033Z,77.48
2018-01-24T00:51:59.120Z,77.68
2018-01-24T00:52:59.115Z,77.68
2018-01-24T00:53:59.998Z,78
2018-01-24T00:54:59.146Z,78.05
2018-01-24T00:56:00.116Z,78.09
2018-01-24T00:56:59.588Z,77.67
2018-01-24T00:57:59.251Z,78.1
2018-01-24T00:58:59.060Z,77.95
2018-01-24T00:59:59.605Z,78.14
2018-01-24T01:00:59.679Z,77.82
2018-01-24T01:01:59.075Z,77.82
2018-01-24T01:02:59.044Z,78.01
2018-01-24T01:03:59.103Z,78.1
2018-01-24T01:05:00.032Z,77.63
2018-01-24T01:05:59.738Z,78.04
2018-01-24T01:06:59.077Z,78.32
2018-01-24T01:07:59.072Z,78.51
2018-01-24T01:08:59.041Z,77.97
2018-01-24T01:09:59.088Z,78.33
2018-01-24T01:10:59.089Z,78
2018-01-24T01:11:59.148Z,78
2018-01-24T01:12:59.722Z,78.01
2018-01-24T01:13:59.116Z,78.1
2018-01-24T01:14:59.815Z,78.49
2018-01-24T01:15:59.084Z,77.94
2018-01-24T01:16:59.834Z,78.39
2018-01-24T01:17:59.178Z,78.24
2018-01-24T01:19:00.002Z,78.5
2018-01-24T01:19:59.707Z,78.38
2018-01-24T01:20:59.082Z,78.42
2018-01-24T01:21:59.169Z,78.54
2018-01-24T01:22:59.062Z,78.59
2018-01-24T01:23:59.742Z,78.49
2018-01-24T01:24:59.065Z,78.54
2018-01-24T01:25:59.219Z,78.4
2018-01-24T01:26:59.081Z,78.57
2018-01-24T01:27:59.849Z,78.28
2018-01-24T01:28:59.119Z,78.42
2018-01-24T01:29:59.061Z,78.42
2018-01-24T01:30:59.079Z,78.24
2018-01-24T01:31:59.860Z,78.27
2018-01-24T01:32:59.116Z,78.69
2018-01-24T01:33:59.157Z,78.82
2018-01-24T01:34:59.273Z,78.59
2018-01-24T01:35:59.092Z,78.12
2018-01-24T01:37:00.286Z,78.64
2018-01-24T01:38:00.167Z,78.62
2018-01-24T01:38:59.243Z,78.78
2018-01-24T01:39:59.070Z,78.73
2018-01-24T01:40:59.222Z,78.79
2018-01-24T01:41:59.333Z,78.88
2018-01-24T01:42:59.937Z,78.99
2018-01-24T01:43:59.276Z,78.82
2018-01-24T01:44:59.257Z,79.02
2018-01-24T01:46:00.019Z,78.6
2018-01-24T01:46:59.467Z,78.62
2018-01-24T01:48:01.339Z,78.67
2018-01-24T01:48:59.475Z,78.82
2018-01-24T01:49:59.295Z,78.66
2018-01-24T01:50:59.923Z,78.67
2018-01-24T01:52:00.248Z,79.1
2018-01-24T01:52:59.198Z,78.78
2018-01-24T01:53:59.252Z,79.13
2018-01-24T01:54:59.262Z,78.68
2018-01-24T01:55:59.241Z,78.62
2018-01-24T01:56:59.255Z,78.57
2018-01-24T01:57:59.217Z,79.04
2018-01-24T01:58:59.223Z,78.88
2018-01-24T01:59:59.246Z,79.08
2018-01-24T02:00:59.511Z,78.7
2018-01-24T02:01:59.233Z,78.99
2018-01-24T02:02:59.224Z,78.67
2018-01-24T02:03:59.233Z,79.02
2018-01-24T02:04:59.199Z,79.09
2018-01-24T02:05:59.247Z,78.68
2018-01-24T02:06:59.228Z,78.89
2018-01-24T02:07:59.234Z,78.76
2018-01-24T02:08:59.241Z,78.79
2018-01-24T02:09:59.253Z,78.87
2018-01-24T02:10:59.279Z,78.68
2018-01-24T02:11:59.294Z,79.02
2018-01-24T02:12:59.294Z,79.02
2018-01-24T02:13:59.260Z,79.17
2018-01-24T02:14:59.902Z,79.28
2018-01-24T02:15:59.610Z,78.91
2018-01-24T02:16:59.278Z,79.33
2018-01-24T02:17:59.280Z,79.3
2018-01-24T02:18:59.261Z,79.29
2018-01-24T02:19:59.291Z,79.33
2018-01-24T02:20:59.299Z,79.34
2018-01-24T02:21:59.303Z,79.27
2018-01-24T02:22:59.301Z,79.25
2018-01-24T02:23:59.327Z,78.86
2018-01-24T02:24:59.260Z,78.94
2018-01-24T02:25:59.328Z,79.37
2018-01-24T02:26:59.360Z,79.43
2018-01-24T02:27:59.282Z,79.52
2018-01-24T02:28:59.251Z,79.5
2018-01-24T02:29:59.296Z,79.48
2018-01-24T02:30:59.250Z,79.61
2018-01-24T02:31:59.260Z,79.17
2018-01-24T02:33:00.018Z,79.37
2018-01-24T02:33:59.248Z,79.27
2018-01-24T02:34:59.236Z,79.09
2018-01-24T02:35:59.274Z,79.56
2018-01-24T02:36:59.272Z,79.57
2018-01-24T02:37:59.589Z,79.5
2018-01-24T02:38:59.321Z,79.49
2018-01-24T02:39:59.326Z,79.64
2018-01-24T02:40:59.271Z,79.78
2018-01-24T02:41:59.307Z,79.74
2018-01-24T02:42:59.337Z,79.83
2018-01-24T02:43:59.285Z,79.88
2018-01-24T02:44:59.314Z,79.95
2018-01-24T02:45:59.306Z,79.82
2018-01-24T02:46:59.301Z,79.77
2018-01-24T02:47:59.304Z,80.02
2018-01-24T02:48:59.343Z,80.05
2018-01-24T02:49:59.308Z,80.2
2018-01-24T02:50:59.272Z,80.18
2018-01-24T02:51:59.298Z,80.09
2018-01-24T02:52:59.285Z,80.06
2018-01-24T02:53:59.325Z,80.19
2018-01-24T02:54:59.284Z,80.32
2018-01-24T02:55:59.289Z,80.38
2018-01-24T02:56:59.332Z,80.46
2018-01-24T02:57:59.343Z,80.49
2018-01-24T02:58:59.310Z,80.54
2018-01-24T02:59:59.361Z,80.49
2018-01-24T03:00:59.308Z,80.8
2018-01-24T03:01:59.301Z,80.82
2018-01-24T03:02:59.294Z,80.82
2018-01-24T03:03:59.315Z,80.95
2018-01-24T03:04:59.309Z,80.84
2018-01-24T03:05:59.304Z,80.9
2018-01-24T03:06:59.379Z,81.12
2018-01-24T03:07:59.339Z,81.21
2018-01-24T03:08:59.281Z,81.39
2018-01-24T03:09:59.288Z,81.24
2018-01-24T03:10:59.282Z,81.24
2018-01-24T03:11:59.412Z,81.42
2018-01-24T03:12:59.418Z,81.29
2018-01-24T03:13:59.354Z,81.57
2018-01-24T03:14:59.310Z,81.4
2018-01-24T03:15:59.356Z,81.63
2018-01-24T03:16:59.362Z,81.67
2018-01-24T03:17:59.352Z,81.61
2018-01-24T03:18:59.377Z,81.89
2018-01-24T03:19:59.355Z,81.89
2018-01-24T03:20:59.335Z,81.87
2018-01-24T03:21:59.316Z,82.03
2018-01-24T03:22:59.354Z,82.13
2018-01-24T03:24:59.992Z,82.13
2018-01-24T03:25:59.338Z,82.35
2018-01-24T03:26:59.377Z,82.29
2018-01-24T03:27:59.296Z,82.49
2018-01-24T03:28:59.337Z,82.43
2018-01-24T03:29:59.389Z,82.59
2018-01-24T03:30:59.368Z,82.55
2018-01-24T03:31:59.368Z,82.63
2018-01-24T03:32:59.342Z,82.59
2018-01-24T03:33:59.366Z,82.63
2018-01-24T03:34:59.335Z,82.8
2018-01-24T03:35:59.340Z,82.77
2018-01-24T03:36:59.311Z,82.64
2018-01-24T03:37:59.319Z,82.82
2018-01-24T03:38:59.302Z,82.94
2018-01-24T03:39:59.289Z,83.3
2018-01-24T03:40:59.338Z,83.75
2018-01-24T03:41:59.377Z,83.88
2018-01-24T03:42:59.394Z,84.51
2018-01-24T03:43:59.454Z,84.78
2018-01-24T03:44:59.408Z,84.94
2018-01-24T03:45:59.334Z,85.57
2018-01-24T03:46:59.361Z,85.54
2018-01-24T03:47:59.386Z,85.15
2018-01-24T03:48:59.374Z,85.91
2018-01-24T03:49:59.374Z,85.62
2018-01-24T03:50:59.412Z,85.96
2018-01-24T03:51:59.403Z,85.78
2018-01-24T03:52:59.393Z,86.02
2018-01-24T03:53:59.388Z,86.12
2018-01-24T03:54:59.403Z,85.78
2018-01-24T03:55:59.387Z,85.96
2018-01-24T03:56:59.424Z,86.12
2018-01-24T03:57:59.353Z,85.81
2018-01-24T03:58:59.420Z,85.9
2018-01-24T03:59:59.401Z,85.93
2018-01-24T04:00:59.418Z,86.02
2018-01-24T04:01:59.396Z,85.79
2018-01-24T04:02:59.365Z,85.88
2018-01-24T04:03:59.410Z,85.68
2018-01-24T04:04:59.405Z,85.87
2018-01-24T04:05:59.416Z,85.91
2018-01-24T04:06:59.521Z,85.94
2018-01-24T04:07:59.442Z,86.11
2018-01-24T04:08:59.404Z,86.02
2018-01-24T04:09:59.444Z,86.16
2018-01-24T04:10:59.370Z,86.07
2018-01-24T04:11:59.463Z,86.11
2018-01-24T04:12:59.427Z,86.26
2018-01-24T04:13:59.466Z,85.96
2018-01-24T04:14:59.446Z,85.75
2018-01-24T04:15:59.428Z,86.09
2018-01-24T04:16:59.423Z,86.1
2018-01-24T04:17:59.383Z,85.93
2018-01-24T04:18:59.401Z,86.32
2018-01-24T04:19:59.422Z,86.35
2018-01-24T04:20:59.477Z,86.77
2018-01-24T04:21:59.448Z,87
2018-01-24T04:22:59.382Z,86.87
2018-01-24T04:23:59.460Z,86.6
2018-01-24T04:24:59.439Z,86.7
2018-01-24T04:25:59.454Z,86.94
2018-01-24T04:26:59.457Z,87.01
2018-01-24T04:27:59.406Z,86.66
2018-01-24T04:28:59.499Z,86.72
2018-01-24T04:29:59.436Z,87.02
2018-01-24T04:30:59.376Z,86.98
2018-01-24T04:31:59.461Z,86.99
2018-01-24T04:32:59.424Z,86.9
2018-01-24T04:33:59.426Z,86.93
2018-01-24T04:34:59.408Z,87.1
2018-01-24T04:35:59.401Z,87.06
2018-01-24T04:36:59.470Z,87.2
2018-01-24T04:37:59.429Z,87.12
2018-01-24T04:38:59.388Z,87.28
2018-01-24T04:39:59.384Z,87.04
2018-01-24T04:40:59.401Z,87.04
2018-01-24T04:41:59.508Z,86.85
2018-01-24T04:42:59.437Z,87.06
2018-01-24T04:43:59.444Z,87.03
2018-01-24T04:44:59.475Z,86.9
2018-01-24T04:45:59.450Z,86.93
2018-01-24T04:46:59.411Z,86.91
2018-01-24T04:47:59.486Z,87.03
2018-01-24T04:48:59.495Z,87.23
2018-01-24T04:49:59.528Z,87.06
2018-01-24T04:50:59.446Z,87.08
2018-01-24T04:51:59.476Z,86.83
2018-01-24T04:52:59.476Z,87.18
2018-01-24T04:53:59.460Z,86.88
2018-01-24T04:56:59.497Z,86.92
2018-01-24T04:57:59.686Z,86.76
2018-01-24T04:58:59.511Z,86.78
2018-01-24T04:59:59.589Z,86.87
2018-01-24T05:00:59.543Z,87.05
2018-01-24T05:01:59.481Z,87.1
2018-01-24T05:02:59.694Z,87.05
2018-01-24T05:03:59.509Z,86.88
2018-01-24T05:04:59.511Z,87.1
2018-01-24T05:05:59.538Z,87.22
2018-01-24T05:06:59.535Z,87.28
2018-01-24T05:07:59.572Z,87.21
2018-01-24T05:08:59.591Z,87.04
2018-01-24T05:09:59.468Z,86.92
2018-01-24T05:10:59.489Z,86.98
2018-01-24T05:11:59.602Z,87.23
2018-01-24T05:12:59.544Z,87.13
2018-01-24T05:13:59.594Z,86.82
2018-01-24T05:14:59.534Z,87.1
2018-01-24T05:15:59.523Z,86.92
2018-01-24T05:16:59.469Z,87.1
2018-01-24T05:17:59.476Z,87.09
2018-01-24T05:18:59.562Z,86.96
2018-01-24T05:19:59.520Z,87.13
2018-01-24T05:20:59.538Z,86.93
2018-01-24T05:21:59.516Z,87.18
2018-01-24T05:22:59.543Z,86.91
2018-01-24T05:23:59.550Z,86.97
2018-01-24T05:24:59.617Z,86.72
2018-01-24T05:25:59.474Z,86.85
2018-01-24T05:26:59.505Z,86.67
2018-01-24T05:27:59.513Z,86.88
2018-01-24T05:28:59.492Z,86.7
2018-01-24T05:29:59.510Z,86.75
2018-01-24T05:30:59.552Z,86.77
2018-01-24T05:31:59.514Z,86.91
2018-01-24T05:32:59.492Z,87.1
2018-01-24T05:33:59.552Z,87
2018-01-24T05:34:59.569Z,87.06
2018-01-24T05:36:00.324Z,87
2018-01-24T05:36:59.562Z,87.12
2018-01-24T05:37:59.504Z,86.79
2018-01-24T05:38:59.458Z,86.77
2018-01-24T05:39:59.533Z,86.94
2018-01-24T05:40:59.584Z,87.09
2018-01-24T05:41:59.551Z,87.12
2018-01-24T05:42:59.558Z,87.12
2018-01-24T05:43:59.530Z,87.2
2018-01-24T05:44:59.574Z,87.16
2018-01-24T05:45:59.551Z,87.24
2018-01-24T05:46:59.516Z,87.04
2018-01-24T05:47:59.548Z,87.03
2018-01-24T05:48:59.515Z,87.1
2018-01-24T05:49:59.631Z,86.91
2018-01-24T05:50:59.544Z,87.05
2018-01-24T05:51:59.520Z,86.98
2018-01-24T05:52:59.583Z,87.17
2018-01-24T05:53:59.589Z,87.2
2018-01-24T05:54:59.534Z,87.12
2018-01-24T05:55:59.546Z,87.18
2018-01-24T05:56:59.572Z,86.99
2018-01-24T05:57:59.637Z,87.1
2018-01-24T05:58:59.570Z,86.99
2018-01-24T05:59:59.797Z,87.04
2018-01-24T06:00:59.569Z,87.2
2018-01-24T06:01:59.551Z,87.03
2018-01-24T06:02:59.540Z,86.85
2018-01-24T06:03:59.560Z,87.12
2018-01-24T06:04:59.604Z,87.17
2018-01-24T06:05:59.554Z,87.3
2018-01-24T06:06:59.613Z,87.11
2018-01-24T06:07:59.562Z,87.21
2018-01-24T06:08:59.569Z,87.08
2018-01-24T06:09:59.586Z,87.14
2018-01-24T06:10:59.566Z,87.24
2018-01-24T06:12:00.343Z,87.16
2018-01-24T06:12:59.746Z,87.12
2018-01-24T06:13:59.721Z,86.97
2018-01-24T06:14:59.650Z,87.3
2018-01-24T06:15:59.649Z,87.08
2018-01-24T06:16:59.707Z,87.18
2018-01-24T06:17:59.654Z,87.21
2018-01-24T06:18:59.737Z,87.47
2018-01-24T06:19:59.593Z,87.41
2018-01-24T06:20:59.623Z,87.42
2018-01-24T06:21:59.659Z,87.27
2018-01-24T06:22:59.706Z,87.37
2018-01-24T06:23:59.655Z,87.34
2018-01-24T06:24:59.788Z,87.24
2018-01-24T06:25:59.641Z,87.33
2018-01-24T06:26:59.633Z,87.41
2018-01-24T06:27:59.652Z,87.24
2018-01-24T06:28:59.588Z,87.31
2018-01-24T06:29:59.683Z,87.34
2018-01-24T06:30:59.726Z,87.38
2018-01-24T06:31:59.633Z,87.28
2018-01-24T06:32:59.701Z,87.19
2018-01-24T06:33:59.643Z,87.38
2018-01-24T06:34:59.616Z,87.29
2018-01-24T06:35:59.865Z,87.28
2018-01-24T06:36:59.625Z,87.57
2018-01-24T06:37:59.633Z,87.6
2018-01-24T06:38:59.666Z,87.46
2018-01-24T06:39:59.697Z,87.81
2018-01-24T06:40:59.659Z,87.68
2018-01-24T06:41:59.955Z,87.77
2018-01-24T06:42:58.790Z,87.6
2018-01-24T06:43:59.078Z,87.68
2018-01-24T06:44:58.800Z,87.8
2018-01-24T06:45:58.782Z,87.87
2018-01-24T06:46:58.789Z,87.64
2018-01-24T06:47:58.780Z,87.59
2018-01-24T06:48:58.811Z,87.83
2018-01-24T06:49:58.841Z,87.63
2018-01-24T06:50:58.790Z,87.68
2018-01-24T06:51:58.809Z,88.27
2018-01-24T06:52:58.785Z,87.96
2018-01-24T06:53:58.754Z,87.74
2018-01-24T06:54:58.866Z,87.95
2018-01-24T06:55:58.749Z,87.71
2018-01-24T06:56:58.756Z,88.09
2018-01-24T06:57:58.889Z,88.05
2018-01-24T06:58:58.835Z,87.91
2018-01-24T06:59:59.581Z,88
2018-01-24T07:00:58.926Z,87.86
2018-01-24T07:01:58.793Z,88.16
2018-01-24T07:02:58.835Z,88.04
2018-01-24T07:03:58.910Z,87.74
2018-01-24T07:04:58.799Z,87.81
2018-01-24T07:05:58.833Z,88.08
2018-01-24T07:06:58.810Z,88.2
2018-01-24T07:07:58.765Z,88.28
2018-01-24T07:08:59.277Z,88.22
2018-01-24T07:09:58.846Z,88.26
2018-01-24T07:10:58.801Z,88.47
2018-01-24T07:11:58.828Z,88.12
2018-01-24T07:12:58.940Z,88.1
2018-01-24T07:13:58.947Z,88.29
2018-01-24T07:14:58.846Z,88.04
2018-01-24T07:15:58.874Z,88.25
2018-01-24T07:16:58.842Z,88.11
2018-01-24T07:17:58.826Z,88.35
2018-01-24T07:18:58.894Z,88.18
2018-01-24T07:19:58.933Z,88.24
2018-01-24T07:20:59.215Z,88.48
2018-01-24T07:21:58.810Z,88.37
2018-01-24T07:22:58.819Z,88.81
2018-01-24T07:23:58.839Z,88.16
2018-01-24T07:24:58.832Z,88.34
2018-01-24T07:25:58.920Z,88.57
2018-01-24T07:26:59.217Z,88.36
2018-01-24T07:27:58.804Z,88.53
2018-01-24T07:28:58.833Z,88.63
2018-01-24T07:29:58.825Z,88.67
2018-01-24T07:30:58.888Z,88.58
2018-01-24T07:31:58.869Z,88.81
2018-01-24T07:32:58.925Z,88.52
2018-01-24T07:33:58.830Z,88.98
2018-01-24T07:34:59.464Z,88.61
2018-01-24T07:35:58.906Z,88.39
2018-01-24T07:36:59.059Z,88.53
2018-01-24T07:37:58.836Z,88.45
2018-01-24T07:38:59.570Z,88.59
2018-01-24T07:39:58.921Z,88.52
2018-01-24T07:40:59.542Z,88.56
2018-01-24T07:41:59.443Z,88.56
2018-01-24T07:42:58.942Z,88.67
2018-01-24T07:43:58.960Z,88.6
2018-01-24T07:44:58.946Z,88.55
2018-01-24T07:45:59.687Z,88.62
2018-01-24T07:47:03.037Z,88.54
2018-01-24T07:47:58.869Z,88.39
2018-01-24T07:48:58.914Z,88.65
2018-01-24T07:50:00.057Z,88.45
2018-01-24T07:50:58.832Z,88.36
2018-01-24T07:51:59.772Z,88.4
2018-01-24T07:53:01.315Z,88.26
2018-01-24T07:53:58.977Z,88.21
2018-01-24T07:54:59.878Z,88.44
2018-01-24T07:55:58.911Z,88.37
2018-01-24T07:56:58.910Z,88.3
2018-01-24T07:57:59.799Z,88.23
2018-01-24T07:58:58.930Z,88.38
2018-01-24T07:59:58.917Z,88.71
2018-01-24T08:00:58.922Z,88.57
2018-01-24T08:01:58.939Z,88.44
2018-01-24T08:02:58.947Z,88.33
2018-01-24T08:03:58.984Z,88.44
2018-01-24T08:04:59.575Z,88.29
2018-01-24T08:05:59.616Z,88.33
2018-01-24T08:06:59.018Z,88.44
2018-01-24T08:07:59.674Z,88.43
2018-01-24T08:08:58.851Z,88.33
2018-01-24T08:09:58.924Z,88.13
2018-01-24T08:10:58.889Z,88.37
2018-01-24T08:11:58.874Z,88.5
2018-01-24T08:12:58.978Z,88.31
2018-01-24T08:13:58.984Z,88.49
2018-01-24T08:14:58.903Z,88.49
2018-01-24T08:15:58.950Z,88.45
2018-01-24T08:16:58.913Z,88.74
2018-01-24T08:17:59.018Z,88.4
2018-01-24T08:18:58.876Z,88.6
2018-01-24T08:19:58.916Z,88.84
2018-01-24T08:20:59.023Z,88.5
2018-01-24T08:21:58.896Z,88.74
2018-01-24T08:22:58.942Z,88.41
2018-01-24T08:23:58.951Z,88.38
2018-01-24T08:24:59.032Z,88.27
2018-01-24T08:25:58.968Z,88.39
2018-01-24T08:26:58.944Z,88.22
2018-01-24T08:27:58.983Z,88.16
2018-01-24T08:28:59.148Z,88.34
2018-01-24T08:29:58.918Z,88.51
2018-01-24T08:30:58.929Z,88.48
2018-01-24T08:31:58.968Z,88.31
2018-01-24T08:32:58.933Z,88.3
2018-01-24T08:33:59.196Z,88.52
2018-01-24T08:34:58.948Z,88.45
2018-01-24T08:35:58.963Z,88.7
2018-01-24T08:36:58.977Z,88.61
2018-01-24T08:37:59.122Z,88.35
2018-01-24T08:38:58.964Z,88.26
2018-01-24T08:39:58.968Z,88.48
2018-01-24T08:40:58.949Z,88.54
2018-01-24T08:41:58.971Z,88.71
2018-01-24T08:42:59.078Z,88.16
2018-01-24T08:43:58.973Z,88.17
2018-01-24T08:44:59.019Z,88.35
2018-01-24T08:45:59.022Z,88.38
2018-01-24T08:46:58.989Z,88.58
2018-01-24T08:47:59.057Z,88.45
2018-01-24T08:48:59.040Z,88.21
2018-01-24T08:49:59.048Z,88.28
2018-01-24T08:50:59.056Z,88.04
2018-01-24T08:51:58.973Z,87.86
2018-01-24T08:52:58.992Z,88.09
2018-01-24T08:53:59.019Z,87.83
2018-01-24T08:54:59.021Z,87.74
2018-01-24T08:55:59.241Z,87.97
2018-01-24T08:56:58.983Z,88.15
2018-01-24T08:57:58.980Z,87.93
2018-01-24T08:58:59.029Z,87.93
2018-01-24T08:59:58.978Z,88.09
2018-01-24T09:00:59.089Z,88.17
2018-01-24T09:01:59.006Z,87.86
2018-01-24T09:02:58.982Z,87.83
2018-01-24T09:03:58.999Z,87.69
2018-01-24T09:04:58.999Z,87.88
2018-01-24T09:05:58.983Z,87.83
2018-01-24T09:06:59.039Z,87.87
2018-01-24T09:07:59.024Z,87.98
2018-01-24T09:08:59.013Z,87.83
2018-01-24T09:09:59.033Z,87.39
2018-01-24T09:10:58.994Z,87.59
2018-01-24T09:11:59.064Z,87.74
2018-01-24T09:13:00.106Z,87.7
2018-01-24T09:13:59.053Z,87.43
2018-01-24T09:14:59.164Z,87.64
2018-01-24T09:15:59.046Z,87.67
2018-01-24T09:16:59.049Z,87.5
2018-01-24T09:17:59.027Z,87.43
2018-01-24T09:18:59.020Z,87.62
2018-01-24T09:19:59.076Z,87.58
2018-01-24T09:20:59.059Z,87.72
2018-01-24T09:21:58.997Z,87.84
2018-01-24T09:22:59.120Z,87.75
2018-01-24T09:23:59.060Z,87.61
2018-01-24T09:24:59.020Z,87.96
2018-01-24T09:25:59.103Z,87.87
2018-01-24T09:26:59.018Z,87.54
2018-01-24T09:27:59.034Z,87.53
2018-01-24T09:28:59.013Z,87.76
2018-01-24T09:29:59.096Z,87.84
2018-01-24T09:30:59.144Z,87.7
2018-01-24T09:31:59.913Z,87.39
2018-01-24T09:33:00.136Z,87.63
2018-01-24T09:34:00.356Z,87.37
2018-01-24T09:34:59.541Z,87.48
2018-01-24T09:35:59.888Z,87.28
2018-01-24T09:37:00.167Z,87.39
2018-01-24T09:38:00.419Z,87.29
2018-01-24T09:38:59.536Z,87.04
2018-01-24T09:40:00.199Z,87.21
2018-01-24T09:41:00.449Z,87.27
2018-01-24T09:41:59.666Z,87.02
2018-01-24T09:42:59.818Z,87.13
2018-01-24T09:43:59.152Z,87.15
2018-01-24T09:45:00.252Z,86.81
2018-01-24T09:45:59.628Z,86.87
2018-01-24T09:46:59.935Z,86.68
2018-01-24T09:48:00.280Z,86.7
2018-01-24T09:48:59.259Z,86.35
2018-01-24T09:50:00.062Z,85.83
2018-01-24T09:51:00.296Z,85.66
2018-01-24T09:52:00.504Z,85.93
2018-01-24T09:52:59.669Z,85.79
2018-01-24T09:53:59.768Z,85.78
2018-01-24T09:55:00.232Z,85.59
2018-01-24T09:55:59.986Z,85.84
2018-01-24T09:57:00.209Z,86.07
2018-01-24T09:58:00.532Z,86.01
2018-01-24T09:58:59.183Z,85.09
2018-01-24T09:59:59.903Z,84.96
2018-01-24T10:01:00.230Z,85.1
2018-01-24T10:02:00.440Z,84.76
2018-01-24T10:03:00.545Z,84.88
2018-01-24T10:03:59.803Z,84.97
2018-01-24T10:04:59.104Z,84.92
2018-01-24T10:05:59.830Z,84.57
2018-01-24T10:07:00.294Z,84.58
2018-01-24T10:07:59.824Z,84.68
2018-01-24T10:09:00.249Z,84.57
2018-01-24T10:09:59.105Z,84.47
2018-01-24T10:11:00.006Z,84.7
2018-01-24T10:12:00.133Z,84.09
2018-01-24T10:13:00.231Z,83.45
2018-01-24T10:14:00.583Z,83.56
2018-01-24T10:14:59.953Z,83.61
2018-01-24T10:16:00.189Z,83.54
2018-01-24T10:16:59.166Z,83.41
2018-01-24T10:18:01.109Z,83.3
2018-01-24T10:19:00.575Z,83.15
2018-01-24T10:19:59.882Z,83.24
2018-01-24T10:20:59.995Z,82.72
2018-01-24T10:22:00.235Z,82.48
2018-01-24T10:23:00.415Z,82.02
2018-01-24T10:23:59.732Z,81.61
2018-01-24T10:24:59.850Z,81.17
2018-01-24T10:25:59.271Z,80.82
2018-01-24T10:27:00.455Z,81
2018-01-24T10:27:59.629Z,80.64
2018-01-24T10:28:59.759Z,81.2
2018-01-24T10:29:59.104Z,81.04
2018-01-24T10:30:59.142Z,80.74
2018-01-24T10:32:00.046Z,80.18
2018-01-24T10:33:00.276Z,79.84
2018-01-24T10:34:00.222Z,80.12
2018-01-24T10:35:00.333Z,79.57
2018-01-24T10:36:01.093Z,79.96
2018-01-24T10:37:00.175Z,79.86
2018-01-24T10:38:00.033Z,79.95
2018-01-24T10:39:00.229Z,79.83
2018-01-24T10:40:00.187Z,79.55
2018-01-24T10:41:00.242Z,79.36
2018-01-24T10:42:00.149Z,79.33
2018-01-24T10:43:00.270Z,79.11
2018-01-24T10:43:59.102Z,79.87
2018-01-24T10:45:00.263Z,79.65
2018-01-24T10:46:00.045Z,80.04
2018-01-24T10:46:59.695Z,79.9
2018-01-24T10:48:00.201Z,79.29
2018-01-24T10:49:00.110Z,78.85
2018-01-24T10:50:00.307Z,78.63
2018-01-24T10:51:00.212Z,78.42
2018-01-24T10:51:59.143Z,78.63
2018-01-24T10:53:00.084Z,78.86
2018-01-24T10:53:59.885Z,78.29
2018-01-24T10:55:00.054Z,78.18
2018-01-24T10:56:00.043Z,78.57
2018-01-24T10:57:00.181Z,78.46
2018-01-24T10:58:00.029Z,78.59
2018-01-24T10:58:59.935Z,78.12
2018-01-24T11:00:00.033Z,78.39
2018-01-24T11:01:00.404Z,78.75
2018-01-24T11:02:00.261Z,78.48
2018-01-24T11:03:00.174Z,78.19
2018-01-24T11:03:59.126Z,78.37
2018-01-24T11:05:00.018Z,77.97
2018-01-24T11:05:59.965Z,78.51
2018-01-24T11:07:00.267Z,77.93
2018-01-24T11:08:00.368Z,77.89
2018-01-24T11:09:00.117Z,77
2018-01-24T11:10:00.264Z,77.64
2018-01-24T11:11:00.708Z,77.5
2018-01-24T11:12:00.100Z,76.09
2018-01-24T11:12:59.227Z,76.39
2018-01-24T11:13:59.930Z,76.39
2018-01-24T11:15:00.148Z,76.69
2018-01-24T11:16:00.276Z,76.9
2018-01-24T11:17:00.173Z,76.32
2018-01-24T11:18:00.221Z,77.31
2018-01-24T11:19:00.377Z,76.84
2018-01-24T11:20:00.295Z,76.76
2018-01-24T11:21:00.117Z,76.16
2018-01-24T11:22:00.221Z,76.65
2018-01-24T11:23:00.905Z,76.82
2018-01-24T11:24:00.181Z,75.7
2018-01-24T11:25:00.113Z,75.92
2018-01-24T11:26:00.099Z,75.81
2018-01-24T11:27:00.232Z,75.87
2018-01-24T11:28:00.414Z,74.81
2018-01-24T11:29:00.166Z,75.17
2018-01-24T11:29:59.096Z,75.06
2018-01-24T11:30:59.137Z,75.52
2018-01-24T11:31:59.142Z,76.12
2018-01-24T11:32:59.079Z,74.71
2018-01-24T11:33:59.081Z,75.28
2018-01-24T11:34:59.102Z,75.31
2018-01-24T11:35:59.263Z,75.64
2018-01-24T11:36:59.115Z,75.8
2018-01-24T11:37:59.152Z,75.03
2018-01-24T11:38:59.093Z,74.49
2018-01-24T11:39:59.164Z,74.92
2018-01-24T11:40:59.165Z,75.26
2018-01-24T11:41:59.109Z,74.96
2018-01-24T11:42:59.144Z,74.92
2018-01-24T11:43:59.247Z,75.13
2018-01-24T11:44:59.145Z,74.66
2018-01-24T11:45:59.117Z,75.27
2018-01-24T11:46:59.081Z,75.02
2018-01-24T11:47:59.088Z,74.58
2018-01-24T11:48:59.165Z,75.3
2018-01-24T11:49:59.151Z,74.61
2018-01-24T11:50:59.313Z,74.62
2018-01-24T11:51:59.147Z,74.25
2018-01-24T11:52:59.203Z,74.79
2018-01-24T11:53:59.160Z,73.61
2018-01-24T11:54:59.140Z,74.77
2018-01-24T11:55:59.236Z,74.82
2018-01-24T11:56:59.107Z,74.11
2018-01-24T11:57:59.111Z,74.27
2018-01-24T11:58:59.139Z,75.12
2018-01-24T11:59:59.141Z,75.2
2018-01-24T12:00:59.161Z,74.74
2018-01-24T12:01:59.080Z,74.19
2018-01-24T12:02:59.149Z,74.1
2018-01-24T12:03:59.157Z,73.71
2018-01-24T12:04:59.107Z,74.03
2018-01-24T12:05:59.084Z,74.08
2018-01-24T12:06:59.090Z,74.47
2018-01-24T12:07:59.181Z,74.97
2018-01-24T12:08:59.204Z,74.72
2018-01-24T12:09:59.210Z,75.18
2018-01-24T12:10:59.111Z,75
2018-01-24T12:11:59.118Z,75.11
2018-01-24T12:12:59.141Z,75.6
2018-01-24T12:13:59.280Z,75.81
2018-01-24T12:14:59.247Z,74.99
2018-01-24T12:15:59.198Z,74.88
2018-01-24T12:16:59.227Z,74.25
2018-01-24T12:17:59.200Z,74.82
2018-01-24T12:18:59.543Z,75.13
2018-01-24T12:19:59.269Z,74.31
2018-01-24T12:20:59.220Z,74.54
2018-01-24T12:21:59.172Z,74.49
2018-01-24T12:22:59.193Z,75.11
2018-01-24T12:23:59.234Z,75.08
2018-01-24T12:24:59.295Z,74.68
2018-01-24T12:25:59.212Z,74.81
2018-01-24T12:26:59.206Z,74.88
2018-01-24T12:27:59.246Z,74.64
2018-01-24T12:28:59.296Z,74.94
2018-01-24T12:29:59.212Z,74.94
2018-01-24T12:30:59.241Z,75.47
2018-01-24T12:31:59.180Z,75.79
2018-01-24T12:32:59.265Z,75.51
2018-01-24T12:33:59.305Z,76.22
2018-01-24T12:34:59.266Z,75.96
2018-01-24T12:35:59.200Z,75.81
2018-01-24T12:36:59.172Z,75.99
2018-01-24T12:37:59.281Z,75.37
2018-01-24T12:38:59.241Z,75.19
2018-01-24T12:39:59.219Z,75.44
2018-01-24T12:40:59.211Z,75.5
2018-01-24T12:41:59.155Z,75.73
2018-01-24T12:42:59.235Z,75.54
2018-01-24T12:43:59.273Z,75.62
2018-01-24T12:44:59.525Z,76.14
2018-01-24T12:45:59.235Z,75.99
2018-01-24T12:46:59.254Z,76.03
2018-01-24T12:47:59.212Z,75.56
2018-01-24T12:48:59.262Z,75.47
2018-01-24T12:49:59.513Z,76.13
2018-01-24T12:50:59.246Z,75.39
2018-01-24T12:51:59.251Z,74.39
2018-01-24T12:52:59.261Z,74.74
2018-01-24T12:53:59.199Z,75.39
2018-01-24T12:54:59.273Z,74.94
2018-01-24T12:55:59.329Z,75.13
2018-01-24T12:56:59.298Z,75.26
2018-01-24T12:57:59.229Z,75.92
2018-01-24T12:58:59.244Z,74.81
2018-01-24T12:59:59.217Z,75.34